Time,TemperatureF,DewpointF,PressureIn,WindDirection,WindDirectionDegrees,WindSpeedMPH,WindSpeedGustMPH,Humidity,HourlyPrecipIn,Conditions,Clouds,dailyrainin,SoftwareType,DateUTC
2013-03-01 00:01:00,19.0,15.0,30.44,SE,142,2.0,3.0,84,0.00,,,0.00,,2013-03-01 07:01:00,
2013-03-01 00:11:00,19.0,15.0,30.44,SE,142,2.0,3.0,84,0.00,,,0.00,,2013-03-01 07:11:00,
2013-03-01 00:21:00,19.0,15.0,30.44,SE,142,1.0,2.0,84,0.00,,,0.00,,2013-03-01 07:21:00,
2013-03-01 00:31:00,19.0,15.0,30.45,SE,142,0.0,2.0,84,0.00,,,0.00,,2013-03-01 07:31:00,
2013-03-01 00:41:00,19.0,15.0,30.45,SE,142,0.0,2.0,84,0.00,,,0.00,,2013-03-01 07:41:00,
2013-03-01 00:52:00,19.0,15.0,30.44,SE,142,0.0,2.0,85,0.00,,,0.00,,2013-03-01 07:52:00,
2013-03-01 01:01:00,19.0,16.0,30.44,SE,142,0.0,3.0,86,0.00,,,0.00,,2013-03-01 08:01:00,
2013-03-01 01:11:00,19.0,16.0,30.44,SE,142,0.0,3.0,86,0.00,,,0.00,,2013-03-01 08:11:00,
2013-03-01 01:21:00,19.0,15.0,30.45,SE,142,1.0,3.0,84,0.00,,,0.00,,2013-03-01 08:21:00,
2013-03-01 01:31:00,19.0,15.0,30.46,SE,142,0.0,2.0,84,0.00,,,0.00,,2013-03-01 08:31:00,
2013-03-01 01:42:00,19.0,15.0,30.46,SE,142,0.0,2.0,84,0.00,,,0.00,,2013-03-01 08:42:00,
2013-03-01 01:53:00,20.0,16.0,30.45,SE,142,1.0,3.0,84,0.00,,,0.00,,2013-03-01 08:53:00,
2013-03-01 02:01:00,20.0,16.0,30.45,SE,142,0.0,2.0,84,0.00,,,0.00,,2013-03-01 09:01:00,
2013-03-01 02:11:00,20.0,16.0,30.45,SE,142,0.0,2.0,84,0.00,,,0.00,,2013-03-01 09:11:00,
2013-03-01 02:21:00,20.0,16.0,30.45,SE,142,1.0,3.0,83,0.00,,,0.00,,2013-03-01 09:21:00,
2013-03-01 02:31:00,20.0,16.0,30.44,SE,142,0.0,3.0,83,0.00,,,0.00,,2013-03-01 09:31:00,
2013-03-01 02:41:00,20.0,16.0,30.44,SE,142,0.0,3.0,83,0.00,,,0.00,,2013-03-01 09:41:00,
2013-03-01 02:52:00,20.0,16.0,30.44,SE,142,1.0,2.0,83,0.00,,,0.00,,2013-03-01 09:52:00,
2013-03-01 03:01:00,21.0,17.0,30.44,SE,142,1.0,3.0,84,0.00,,,0.00,,2013-03-01 10:01:00,
2013-03-01 03:11:00,21.0,17.0,30.44,SE,142,1.0,3.0,84,0.00,,,0.00,,2013-03-01 10:11:00,
2013-03-01 03:21:00,21.0,17.0,30.45,SE,142,1.0,4.0,84,0.00,,,0.00,,2013-03-01 10:21:00,
2013-03-01 03:31:00,21.0,17.0,30.45,SE,142,1.0,3.0,84,0.00,,,0.00,,2013-03-01 10:31:00,
2013-03-01 03:41:00,21.0,17.0,30.45,SE,142,1.0,3.0,84,0.00,,,0.00,,2013-03-01 10:41:00,
2013-03-01 03:52:00,22.0,18.0,30.45,SE,142,0.0,3.0,83,0.00,,,0.00,,2013-03-01 10:52:00,
2013-03-01 04:01:00,22.0,17.0,30.45,SE,142,0.0,5.0,82,0.00,,,0.00,,2013-03-01 11:01:00,
2013-03-01 04:11:00,22.0,17.0,30.45,SE,142,0.0,5.0,82,0.00,,,0.00,,2013-03-01 11:11:00,
2013-03-01 04:22:00,23.0,18.0,30.45,SE,142,0.0,2.0,81,0.00,,,0.00,,2013-03-01 11:22:00,
2013-03-01 04:31:00,23.0,18.0,30.45,SE,142,0.0,2.0,82,0.00,,,0.00,,2013-03-01 11:31:00,
2013-03-01 04:41:00,23.0,18.0,30.45,SE,142,0.0,2.0,82,0.00,,,0.00,,2013-03-01 11:41:00,
2013-03-01 04:52:00,23.0,18.0,30.45,SE,142,1.0,3.0,82,0.00,,,0.00,,2013-03-01 11:52:00,
2013-03-01 05:01:00,23.0,18.0,30.45,SE,142,1.0,3.0,82,0.00,,,0.00,,2013-03-01 12:01:00,
2013-03-01 05:11:00,23.0,18.0,30.45,SE,142,1.0,3.0,82,0.00,,,0.00,,2013-03-01 12:11:00,
2013-03-01 05:21:00,23.0,19.0,30.45,SE,142,0.0,4.0,83,0.00,,,0.00,,2013-03-01 12:21:00,
2013-03-01 05:32:00,23.0,19.0,30.46,SE,142,0.0,0.0,83,0.00,,,0.00,,2013-03-01 12:32:00,
2013-03-01 05:41:00,23.0,19.0,30.46,SE,142,0.0,0.0,83,0.00,,,0.00,,2013-03-01 12:41:00,
2013-03-01 05:52:00,23.0,19.0,30.46,SE,142,0.0,3.0,83,0.00,,,0.00,,2013-03-01 12:52:00,
2013-03-01 06:01:00,23.0,18.0,30.46,SE,142,0.0,1.0,82,0.00,,,0.00,,2013-03-01 13:01:00,
2013-03-01 06:11:00,23.0,18.0,30.46,SE,142,0.0,1.0,82,0.00,,,0.00,,2013-03-01 13:11:00,
2013-03-01 06:21:00,23.0,18.0,30.46,SE,142,0.0,1.0,82,0.00,,,0.00,,2013-03-01 13:21:00,
2013-03-01 06:32:00,23.0,19.0,30.47,SE,142,0.0,2.0,83,0.00,,,0.00,,2013-03-01 13:32:00,
2013-03-01 06:41:00,23.0,19.0,30.47,SE,142,0.0,2.0,83,0.00,,,0.00,,2013-03-01 13:41:00,
2013-03-01 06:52:00,22.0,18.0,30.47,SE,142,0.0,2.0,84,0.00,,,0.00,,2013-03-01 13:52:00,
2013-03-01 07:01:00,22.0,18.0,30.47,SE,142,2.0,5.0,84,0.00,,,0.00,,2013-03-01 14:01:00,
2013-03-01 07:11:00,22.0,18.0,30.47,SE,142,2.0,5.0,84,0.00,,,0.00,,2013-03-01 14:11:00,
2013-03-01 07:21:00,21.0,17.0,30.48,SE,142,1.0,6.0,86,0.00,,,0.00,,2013-03-01 14:21:00,
2013-03-01 07:31:00,22.0,18.0,30.48,SE,142,0.0,2.0,85,0.00,,,0.00,,2013-03-01 14:31:00,
2013-03-01 07:41:00,22.0,18.0,30.48,SE,142,0.0,2.0,85,0.00,,,0.00,,2013-03-01 14:41:00,
2013-03-01 07:52:00,22.0,18.0,30.49,SE,142,1.0,3.0,83,0.00,,,0.00,,2013-03-01 14:52:00,
2013-03-01 08:01:00,21.0,17.0,30.49,SE,142,3.0,5.0,84,0.00,,,0.00,,2013-03-01 15:01:00,
2013-03-01 08:11:00,22.0,18.0,30.50,SE,142,1.0,7.0,83,0.00,,,0.00,,2013-03-01 15:11:00,
2013-03-01 08:21:00,22.0,18.0,30.50,SE,142,1.0,7.0,83,0.00,,,0.00,,2013-03-01 15:21:00,
2013-03-01 08:31:00,23.0,19.0,30.52,SE,142,2.0,6.0,83,0.00,,,0.00,,2013-03-01 15:31:00,
2013-03-01 08:42:00,23.0,19.0,30.52,SE,142,2.0,6.0,83,0.00,,,0.00,,2013-03-01 15:42:00,
2013-03-01 08:52:00,25.0,19.0,30.48,SE,139,3.0,7.0,78,0.00,,,0.00,,2013-03-01 15:52:00,
2013-03-01 09:01:00,27.0,20.0,30.48,SE,139,0.0,3.0,75,0.00,,,0.00,,2013-03-01 16:01:00,
2013-03-01 09:11:00,27.0,20.0,30.48,SE,139,0.0,3.0,75,0.00,,,0.00,,2013-03-01 16:11:00,
2013-03-01 09:21:00,27.0,20.0,30.51,SW,215,5.0,9.0,73,0.00,,,0.00,,2013-03-01 16:21:00,
2013-03-01 09:31:00,29.0,20.0,30.50,SW,215,1.0,4.0,69,0.00,,,0.00,,2013-03-01 16:31:00,
2013-03-01 09:41:00,29.0,20.0,30.50,SW,215,1.0,4.0,69,0.00,,,0.00,,2013-03-01 16:41:00,
2013-03-01 09:52:00,30.0,20.0,30.48,SW,215,1.0,5.0,67,0.00,,,0.00,,2013-03-01 16:52:00,
2013-03-01 10:01:00,31.0,21.0,30.47,SW,215,3.0,5.0,66,0.00,,,0.00,,2013-03-01 17:01:00,
2013-03-01 10:11:00,31.0,21.0,30.47,SW,215,3.0,5.0,66,0.00,,,0.00,,2013-03-01 17:11:00,
2013-03-01 10:21:00,31.0,20.0,30.49,SSW,213,2.0,5.0,63,0.00,,,0.00,,2013-03-01 17:21:00,
2013-03-01 10:31:00,33.0,21.0,30.49,SSW,213,0.0,4.0,60,0.00,,,0.00,,2013-03-01 17:31:00,
2013-03-01 10:41:00,33.0,21.0,30.49,SSW,213,0.0,4.0,60,0.00,,,0.00,,2013-03-01 17:41:00,
2013-03-01 10:52:00,35.0,21.0,30.47,SSW,213,3.0,5.0,57,0.00,,,0.00,,2013-03-01 17:52:00,
2013-03-01 11:01:00,34.0,20.0,30.47,SSW,213,2.0,5.0,57,0.00,,,0.00,,2013-03-01 18:01:00,
2013-03-01 11:11:00,34.0,20.0,30.47,SSW,213,2.0,5.0,57,0.00,,,0.00,,2013-03-01 18:11:00,
2013-03-01 11:21:00,36.0,21.0,30.46,SSW,213,1.0,4.0,55,0.00,,,0.00,,2013-03-01 18:21:00,
2013-03-01 11:31:00,36.0,21.0,30.46,SSW,213,2.0,6.0,54,0.00,,,0.00,,2013-03-01 18:31:00,
2013-03-01 11:41:00,36.0,21.0,30.46,SSW,213,2.0,6.0,54,0.00,,,0.00,,2013-03-01 18:41:00,
2013-03-01 11:52:00,36.0,21.0,30.46,SSW,213,3.0,7.0,54,0.00,,,0.00,,2013-03-01 18:52:00,
2013-03-01 12:01:00,36.0,21.0,30.46,SSW,202,4.0,7.0,53,0.00,,,0.00,,2013-03-01 19:01:00,
2013-03-01 12:11:00,36.0,21.0,30.46,SSW,202,4.0,7.0,53,0.00,,,0.00,,2013-03-01 19:11:00,
2013-03-01 12:21:00,37.0,21.0,30.45,South,178,4.0,9.0,53,0.00,,,0.00,,2013-03-01 19:21:00,
2013-03-01 12:31:00,38.0,22.0,30.44,SSE,155,4.0,9.0,53,0.00,,,0.00,,2013-03-01 19:31:00,
2013-03-01 12:41:00,38.0,22.0,30.44,SSE,155,4.0,9.0,53,0.00,,,0.00,,2013-03-01 19:41:00,
2013-03-01 12:52:00,38.0,23.0,30.44,SSE,155,2.0,6.0,54,0.00,,,0.00,,2013-03-01 19:52:00,
2013-03-01 13:01:00,40.0,24.0,30.44,SSE,155,2.0,6.0,52,0.00,,,0.00,,2013-03-01 20:01:00,
2013-03-01 13:11:00,40.0,24.0,30.44,SSE,155,2.0,6.0,52,0.00,,,0.00,,2013-03-01 20:11:00,
2013-03-01 13:21:00,41.0,24.0,30.42,SE,125,0.0,10.0,50,0.00,,,0.00,,2013-03-01 20:21:00,
2013-03-01 13:31:00,41.0,22.0,30.41,SE,125,2.0,5.0,47,0.00,,,0.00,,2013-03-01 20:31:00,
2013-03-01 13:41:00,41.0,22.0,30.41,SE,125,2.0,5.0,47,0.00,,,0.00,,2013-03-01 20:41:00,
2013-03-01 13:51:00,41.0,22.0,30.41,SE,125,2.0,5.0,47,0.00,,,0.00,,2013-03-01 20:51:00,
2013-03-01 14:01:00,42.0,23.0,30.40,SE,125,2.0,5.0,47,0.00,,,0.00,,2013-03-01 21:01:00,
2013-03-01 14:11:00,42.0,23.0,30.40,SE,127,4.0,8.0,47,0.00,,,0.00,,2013-03-01 21:11:00,
2013-03-01 14:21:00,42.0,23.0,30.40,SE,127,4.0,8.0,47,0.00,,,0.00,,2013-03-01 21:21:00,
2013-03-01 14:31:00,42.0,23.0,30.40,SE,129,4.0,11.0,46,0.00,,,0.00,,2013-03-01 21:31:00,
2013-03-01 14:41:00,42.0,23.0,30.40,SE,129,4.0,11.0,46,0.00,,,0.00,,2013-03-01 21:41:00,
2013-03-01 14:51:00,42.0,23.0,30.40,SE,140,5.0,12.0,46,0.00,,,0.00,,2013-03-01 21:51:00,
2013-03-01 15:01:00,43.0,24.0,30.40,SE,142,6.0,11.0,47,0.00,,,0.00,,2013-03-01 22:01:00,
2013-03-01 15:11:00,43.0,25.0,30.39,SE,143,6.0,11.0,48,0.00,,,0.00,,2013-03-01 22:11:00,
2013-03-01 15:21:00,43.0,25.0,30.39,SE,143,6.0,11.0,48,0.00,,,0.00,,2013-03-01 22:21:00,
2013-03-01 15:31:00,43.0,26.0,30.40,SSE,165,5.0,11.0,50,0.00,,,0.00,,2013-03-01 22:31:00,
2013-03-01 15:41:00,43.0,26.0,30.40,SSE,165,5.0,11.0,50,0.00,,,0.00,,2013-03-01 22:41:00,
2013-03-01 15:51:00,43.0,25.0,30.40,SSE,159,5.0,10.0,49,0.00,,,0.00,,2013-03-01 22:51:00,
2013-03-01 16:01:00,43.0,25.0,30.40,SSE,159,4.0,12.0,49,0.00,,,0.00,,2013-03-01 23:01:00,
2013-03-01 16:11:00,43.0,25.0,30.40,SSE,159,4.0,12.0,49,0.00,,,0.00,,2013-03-01 23:11:00,
2013-03-01 16:21:00,43.0,25.0,30.40,SSE,153,5.0,13.0,49,0.00,,,0.00,,2013-03-01 23:21:00,
2013-03-01 16:31:00,43.0,26.0,30.39,SSE,150,7.0,13.0,50,0.00,,,0.00,,2013-03-01 23:31:00,
2013-03-01 16:41:00,43.0,26.0,30.39,SSE,150,7.0,13.0,50,0.00,,,0.00,,2013-03-01 23:41:00,
2013-03-01 16:52:00,43.0,26.0,30.40,SSE,149,4.0,11.0,51,0.00,,,0.00,,2013-03-01 23:52:00,
2013-03-01 17:01:00,42.0,26.0,30.40,SSE,148,4.0,10.0,52,0.00,,,0.00,,2013-03-02 00:01:00,
2013-03-01 17:11:00,42.0,26.0,30.40,SSE,148,4.0,10.0,52,0.00,,,0.00,,2013-03-02 00:11:00,
2013-03-01 17:21:00,42.0,27.0,30.40,SSE,147,3.0,9.0,55,0.00,,,0.00,,2013-03-02 00:21:00,
2013-03-01 17:31:00,42.0,27.0,30.39,SSE,147,3.0,8.0,56,0.00,,,0.00,,2013-03-02 00:31:00,
2013-03-01 17:41:00,42.0,27.0,30.39,SSE,147,3.0,8.0,56,0.00,,,0.00,,2013-03-02 00:41:00,
2013-03-01 17:52:00,43.0,28.0,30.40,SE,143,2.0,10.0,54,0.00,,,0.00,,2013-03-02 00:52:00,
2013-03-01 18:01:00,42.0,27.0,30.40,SE,143,2.0,6.0,54,0.00,,,0.00,,2013-03-02 01:01:00,
2013-03-01 18:11:00,42.0,27.0,30.40,SE,143,2.0,6.0,54,0.00,,,0.00,,2013-03-02 01:11:00,
2013-03-01 18:21:00,41.0,27.0,30.40,SE,143,0.0,3.0,56,0.00,,,0.00,,2013-03-02 01:21:00,
2013-03-01 18:31:00,41.0,27.0,30.40,SE,143,0.0,3.0,58,0.00,,,0.00,,2013-03-02 01:31:00,
2013-03-01 18:41:00,41.0,27.0,30.40,SE,143,0.0,3.0,58,0.00,,,0.00,,2013-03-02 01:41:00,
2013-03-01 18:51:00,40.0,28.0,30.40,SE,143,1.0,3.0,61,0.00,,,0.00,,2013-03-02 01:51:00,
2013-03-01 19:01:00,39.0,27.0,30.40,SE,144,0.0,4.0,61,0.00,,,0.00,,2013-03-02 02:01:00,
2013-03-01 19:11:00,39.0,27.0,30.40,SE,144,0.0,4.0,61,0.00,,,0.00,,2013-03-02 02:11:00,
2013-03-01 19:21:00,39.0,27.0,30.41,SE,144,0.0,1.0,63,0.00,,,0.00,,2013-03-02 02:21:00,
2013-03-01 19:31:00,38.0,27.0,30.40,SE,144,1.0,3.0,65,0.00,,,0.00,,2013-03-02 02:31:00,
2013-03-01 19:41:00,38.0,27.0,30.40,SE,144,1.0,3.0,65,0.00,,,0.00,,2013-03-02 02:41:00,
2013-03-01 19:52:00,37.0,26.0,30.41,SE,144,0.0,2.0,65,0.00,,,0.00,,2013-03-02 02:52:00,
2013-03-01 20:01:00,36.0,26.0,30.41,SE,144,0.0,3.0,67,0.00,,,0.00,,2013-03-02 03:01:00,
2013-03-01 20:11:00,36.0,26.0,30.41,SE,144,0.0,3.0,67,0.00,,,0.00,,2013-03-02 03:11:00,
2013-03-01 20:21:00,36.0,26.0,30.42,SE,143,1.0,2.0,68,0.00,,,0.00,,2013-03-02 03:21:00,
2013-03-01 20:32:00,35.0,26.0,30.41,SE,144,0.0,2.0,70,0.00,,,0.00,,2013-03-02 03:32:00,
2013-03-01 20:41:00,35.0,26.0,30.41,SE,144,0.0,2.0,70,0.00,,,0.00,,2013-03-02 03:41:00,
2013-03-01 20:52:00,35.0,27.0,30.41,SE,144,0.0,3.0,71,0.00,,,0.00,,2013-03-02 03:52:00,
2013-03-01 21:01:00,34.0,26.0,30.41,SE,144,1.0,3.0,72,0.00,,,0.00,,2013-03-02 04:01:00,
2013-03-01 21:11:00,34.0,26.0,30.41,SE,144,1.0,3.0,72,0.00,,,0.00,,2013-03-02 04:11:00,
2013-03-01 21:21:00,34.0,27.0,30.41,SE,143,0.0,2.0,74,0.00,,,0.00,,2013-03-02 04:21:00,
2013-03-01 21:31:00,33.0,26.0,30.41,SE,144,0.0,3.0,74,0.00,,,0.00,,2013-03-02 04:31:00,
2013-03-01 21:41:00,33.0,26.0,30.41,SE,144,0.0,3.0,74,0.00,,,0.00,,2013-03-02 04:41:00,
2013-03-01 21:51:00,32.0,26.0,30.41,SE,144,0.0,3.0,77,0.00,,,0.00,,2013-03-02 04:51:00,
2013-03-01 22:01:00,32.0,26.0,30.41,SE,143,0.0,2.0,77,0.00,,,0.00,,2013-03-02 05:01:00,
2013-03-01 22:12:00,32.0,26.0,30.41,SE,143,0.0,2.0,77,0.00,,,0.00,,2013-03-02 05:12:00,
2013-03-01 22:22:00,32.0,26.0,30.41,SE,143,0.0,3.0,78,0.00,,,0.00,,2013-03-02 05:22:00,
2013-03-01 22:31:00,31.0,25.0,30.41,SE,144,0.0,0.0,79,0.00,,,0.00,,2013-03-02 05:31:00,
2013-03-01 22:41:00,31.0,25.0,30.41,SE,144,0.0,0.0,79,0.00,,,0.00,,2013-03-02 05:41:00,
2013-03-01 22:52:00,30.0,25.0,30.41,SE,144,0.0,4.0,81,0.00,,,0.00,,2013-03-02 05:52:00,
2013-03-01 23:01:00,30.0,25.0,30.41,SE,144,0.0,3.0,82,0.00,,,0.00,,2013-03-02 06:01:00,
2013-03-01 23:11:00,30.0,25.0,30.41,SE,144,0.0,3.0,82,0.00,,,0.00,,2013-03-02 06:11:00,
2013-03-01 23:21:00,29.0,24.0,30.41,SE,144,0.0,2.0,82,0.00,,,0.00,,2013-03-02 06:21:00,
2013-03-01 23:31:00,29.0,25.0,30.41,SE,144,1.0,3.0,84,0.00,,,0.00,,2013-03-02 06:31:00,
2013-03-01 23:41:00,29.0,25.0,30.41,SE,144,1.0,3.0,84,0.00,,,0.00,,2013-03-02 06:41:00,
2013-03-01 23:51:00,28.0,24.0,30.41,SE,144,0.0,2.0,84,0.00,,,0.00,,2013-03-02 06:51:00,